Navan Bearbrook Airport

CA-0088 · Ontario, Canada

La station TAF utilisée est à 14 NM de l'aéroport
Valable de 2 mars 2024 19:00 à 2 mars 2024 21:00
Temps
samedi
19:00
samedi
20:00
Code
LIFR
LIFR
Temps
Brouillard
Brouillard
Brouillard
Brouillard
Vue
½ mi
½ mi
Base cloud
200 ft
200 ft
Vent
Var
Var
Var
Var
La vitesse
3 kt
3 kt
Rafales
Temp/Sol

Original

TAF CYND 030013Z 0300/0302 VRB03KT 1/2SM FG VV002 RMK NXT FCST BY 031400Z

TAF Navan Bearbrook Airport

Navan Bearbrook Airport es un petit aéroport en Ontario, Canada. L'aéroport est situé à la latitude 45,39141 et à la longitude -75,29683. L'aéroport a une seule piste: 17/35. Cet aéroport n'a pas de code OACI, nous utilisons CA-0088 comme référence. L'aéroport se trouve dans le Montreal FIR.

Cette observation météorologique pour l'aviation a été faite pour Ottawa/Gatineau Airport le 2 mars 2024 19:13, heure locale. Valable de 2 mars 2024 19:00 à 2 mars 2024 21:00, heure locale.

Attentes

  • Entre samedi 19:00 et 21:00

    • Vent: Peu ou pas de vent provenant d'une direction variable.
    • Vue: ½ mi
    • Temps: Brouillard
    • Des nuages: vue verticale à 200 ft hauteur.

Période de lumière du jour

Aujourd'hui, le soleil se lève à 06:34 et se couche à 17:51. Cela s'applique à Navan Bearbrook Airport, la période universelle de lumière du jour peut être différente. La différence entre l'heure locale et UTC est -5 heures. Il n'y a pas d'heure d'été pour le moment.